sensor_id;sensor_type;location;lat;lon;timestamp;pressure;altitude;pressure_sealevel;temperature;humidity
70302;BME280;57706;56.326;43.882;2023-02-20T00:00:27;99359.25;;;-11.40;65.42
70302;BME280;57706;56.326;43.882;2023-02-20T00:02:53;99357.94;;;-11.52;65.00
70302;BME280;57706;56.326;43.882;2023-02-20T00:05:19;99358.69;;;-11.48;65.81
70302;BME280;57706;56.326;43.882;2023-02-20T00:07:46;99354.97;;;-11.38;64.94
70302;BME280;57706;56.326;43.882;2023-02-20T00:10:13;99355.34;;;-11.50;65.88
70302;BME280;57706;56.326;43.882;2023-02-20T00:12:39;99347.34;;;-11.65;65.68
70302;BME280;57706;56.326;43.882;2023-02-20T00:15:05;99349.25;;;-11.44;66.24
70302;BME280;57706;56.326;43.882;2023-02-20T00:17:31;99338.63;;;-11.03;64.91
70302;BME280;57706;56.326;43.882;2023-02-20T00:19:57;99345.97;;;-11.21;64.99
70302;BME280;57706;56.326;43.882;2023-02-20T00:22:24;99343.81;;;-11.34;65.47
70302;BME280;57706;56.326;43.882;2023-02-20T00:24:51;99343.72;;;-11.29;65.16
70302;BME280;57706;56.326;43.882;2023-02-20T00:27:17;99349.09;;;-11.13;64.20
70302;BME280;57706;56.326;43.882;2023-02-20T00:29:44;99350.00;;;-11.41;63.11
70302;BME280;57706;56.326;43.882;2023-02-20T00:32:10;99350.88;;;-11.15;63.93
70302;BME280;57706;56.326;43.882;2023-02-20T00:34:36;99342.56;;;-11.20;64.09
70302;BME280;57706;56.326;43.882;2023-02-20T00:37:02;99345.34;;;-11.28;64.00
70302;BME280;57706;56.326;43.882;2023-02-20T00:39:32;99338.31;;;-11.20;64.07
70302;BME280;57706;56.326;43.882;2023-02-20T00:41:59;99345.47;;;-11.06;64.33
70302;BME280;57706;56.326;43.882;2023-02-20T00:44:25;99350.22;;;-11.22;63.81
70302;BME280;57706;56.326;43.882;2023-02-20T00:46:52;99349.69;;;-11.31;64.01
70302;BME280;57706;56.326;43.882;2023-02-20T00:49:18;99336.81;;;-11.52;63.41
70302;BME280;57706;56.326;43.882;2023-02-20T00:51:44;99343.91;;;-11.35;64.28
70302;BME280;57706;56.326;43.882;2023-02-20T00:54:10;99339.13;;;-11.19;64.67
70302;BME280;57706;56.326;43.882;2023-02-20T00:56:36;99339.63;;;-11.08;64.05
70302;BME280;57706;56.326;43.882;2023-02-20T00:59:02;99332.63;;;-11.01;64.02
70302;BME280;57706;56.326;43.882;2023-02-20T01:01:28;99337.88;;;-11.06;62.93
70302;BME280;57706;56.326;43.882;2023-02-20T01:03:54;99339.81;;;-11.14;63.23
70302;BME280;57706;56.326;43.882;2023-02-20T01:06:20;99341.13;;;-11.02;63.57
70302;BME280;57706;56.326;43.882;2023-02-20T01:08:46;99338.94;;;-11.13;62.98
70302;BME280;57706;56.326;43.882;2023-02-20T01:11:12;99345.78;;;-10.89;63.73
70302;BME280;57706;56.326;43.882;2023-02-20T01:13:38;99336.16;;;-10.80;62.91
70302;BME280;57706;56.326;43.882;2023-02-20T01:16:06;99336.78;;;-10.98;63.32
70302;BME280;57706;56.326;43.882;2023-02-20T01:18:31;99335.31;;;-11.06;62.14
70302;BME280;57706;56.326;43.882;2023-02-20T01:20:57;99332.03;;;-11.08;62.91
70302;BME280;57706;56.326;43.882;2023-02-20T01:23:24;99337.91;;;-11.32;62.61
70302;BME280;57706;56.326;43.882;2023-02-20T01:25:52;99329.41;;;-11.31;63.50
70302;BME280;57706;56.326;43.882;2023-02-20T01:28:18;99329.91;;;-11.22;63.49
70302;BME280;57706;56.326;43.882;2023-02-20T01:30:44;99326.06;;;-11.07;63.33
70302;BME280;57706;56.326;43.882;2023-02-20T01:33:10;99331.47;;;-11.17;63.38
70302;BME280;57706;56.326;43.882;2023-02-20T01:35:35;99325.78;;;-11.24;62.22
70302;BME280;57706;56.326;43.882;2023-02-20T01:38:01;99318.63;;;-11.13;63.19
70302;BME280;57706;56.326;43.882;2023-02-20T01:40:33;99321.97;;;-10.85;63.73
70302;BME280;57706;56.326;43.882;2023-02-20T01:43:01;99324.03;;;-10.71;63.68
70302;BME280;57706;56.326;43.882;2023-02-20T01:45:34;99324.28;;;-11.04;61.99
70302;BME280;57706;56.326;43.882;2023-02-20T01:48:00;99318.75;;;-11.16;62.34
70302;BME280;57706;56.326;43.882;2023-02-20T01:50:41;99317.78;;;-11.39;63.31
70302;BME280;57706;56.326;43.882;2023-02-20T01:53:15;99315.91;;;-11.07;65.82
70302;BME280;57706;56.326;43.882;2023-02-20T01:55:53;99309.06;;;-11.04;63.77
70302;BME280;57706;56.326;43.882;2023-02-20T01:58:42;99308.75;;;-10.95;63.95
70302;BME280;57706;56.326;43.882;2023-02-20T02:01:10;99307.44;;;-11.07;62.50
70302;BME280;57706;56.326;43.882;2023-02-20T02:03:40;99307.34;;;-11.29;61.61
70302;BME280;57706;56.326;43.882;2023-02-20T02:06:09;99309.09;;;-11.06;62.94
70302;BME280;57706;56.326;43.882;2023-02-20T02:08:39;99310.72;;;-11.03;62.66
70302;BME280;57706;56.326;43.882;2023-02-20T02:11:14;99302.06;;;-10.72;60.55
70302;BME280;57706;56.326;43.882;2023-02-20T02:13:42;99295.94;;;-10.92;60.86
70302;BME280;57706;56.326;43.882;2023-02-20T02:24:56;99295.03;;;-11.15;61.13
70302;BME280;57706;56.326;43.882;2023-02-20T02:30:41;99300.22;;;-11.45;62.05
70302;BME280;57706;56.326;43.882;2023-02-20T02:39:42;99294.91;;;-11.12;61.76
70302;BME280;57706;56.326;43.882;2023-02-20T02:50:02;99289.06;;;-11.14;62.73
70302;BME280;57706;56.326;43.882;2023-02-20T02:52:31;99293.72;;;-11.27;62.27
70302;BME280;57706;56.326;43.882;2023-02-20T02:55:31;99293.66;;;-11.25;62.22
70302;BME280;57706;56.326;43.882;2023-02-20T02:57:58;99289.31;;;-11.47;62.42
70302;BME280;57706;56.326;43.882;2023-02-20T03:08:33;99284.69;;;-11.36;62.76
70302;BME280;57706;56.326;43.882;2023-02-20T03:11:06;99289.47;;;-11.26;62.94
70302;BME280;57706;56.326;43.882;2023-02-20T03:13:46;99280.63;;;-11.14;62.68
70302;BME280;57706;56.326;43.882;2023-02-20T03:19:28;99282.78;;;-11.03;62.24
70302;BME280;57706;56.326;43.882;2023-02-20T03:21:58;99276.38;;;-11.14;62.18
70302;BME280;57706;56.326;43.882;2023-02-20T03:24:28;99273.09;;;-10.92;62.04
70302;BME280;57706;56.326;43.882;2023-02-20T03:26:56;99265.38;;;-10.89;61.80
70302;BME280;57706;56.326;43.882;2023-02-20T03:29:30;99275.50;;;-10.87;62.12
70302;BME280;57706;56.326;43.882;2023-02-20T03:32:06;99263.94;;;-10.96;61.12
70302;BME280;57706;56.326;43.882;2023-02-20T03:34:55;99268.94;;;-11.18;61.55
70302;BME280;57706;56.326;43.882;2023-02-20T03:37:42;99262.06;;;-11.42;62.91
70302;BME280;57706;56.326;43.882;2023-02-20T03:40:28;99268.75;;;-11.39;62.50
70302;BME280;57706;56.326;43.882;2023-02-20T03:43:17;99259.59;;;-11.18;62.54
70302;BME280;57706;56.326;43.882;2023-02-20T03:46:11;99267.06;;;-11.39;62.35
70302;BME280;57706;56.326;43.882;2023-02-20T03:49:12;99269.09;;;-11.50;63.21
70302;BME280;57706;56.326;43.882;2023-02-20T03:51:41;99259.84;;;-11.51;62.68
70302;BME280;57706;56.326;43.882;2023-02-20T03:54:16;99271.72;;;-11.52;62.86
70302;BME280;57706;56.326;43.882;2023-02-20T03:56:48;99260.06;;;-11.57;62.97
70302;BME280;57706;56.326;43.882;2023-02-20T03:59:25;99266.78;;;-11.56;62.70
70302;BME280;57706;56.326;43.882;2023-02-20T04:01:56;99259.38;;;-11.63;63.62
70302;BME280;57706;56.326;43.882;2023-02-20T04:04:29;99263.56;;;-11.62;62.59
70302;BME280;57706;56.326;43.882;2023-02-20T04:06:56;99260.91;;;-11.58;63.15
70302;BME280;57706;56.326;43.882;2023-02-20T04:09:30;99262.28;;;-11.75;62.96
70302;BME280;57706;56.326;43.882;2023-02-20T04:12:16;99268.78;;;-11.66;63.52
70302;BME280;57706;56.326;43.882;2023-02-20T04:14:44;99254.28;;;-11.63;63.72
70302;BME280;57706;56.326;43.882;2023-02-20T04:17:15;99258.81;;;-11.72;63.67
70302;BME280;57706;56.326;43.882;2023-02-20T04:19:43;99259.06;;;-11.53;64.70
70302;BME280;57706;56.326;43.882;2023-02-20T04:22:14;99251.44;;;-11.53;63.52
70302;BME280;57706;56.326;43.882;2023-02-20T04:24:45;99248.91;;;-11.79;62.95
70302;BME280;57706;56.326;43.882;2023-02-20T04:27:13;99251.38;;;-11.77;63.79
70302;BME280;57706;56.326;43.882;2023-02-20T04:29:46;99244.63;;;-11.78;63.84
70302;BME280;57706;56.326;43.882;2023-02-20T04:32:12;99243.41;;;-11.66;63.39
70302;BME280;57706;56.326;43.882;2023-02-20T04:34:37;99248.44;;;-11.65;64.33
70302;BME280;57706;56.326;43.882;2023-02-20T04:37:09;99245.25;;;-11.44;64.02
70302;BME280;57706;56.326;43.882;2023-02-20T04:39:36;99246.66;;;-11.36;63.72
70302;BME280;57706;56.326;43.882;2023-02-20T04:42:03;99238.25;;;-11.38;62.86
70302;BME280;57706;56.326;43.882;2023-02-20T04:44:29;99240.16;;;-11.19;63.80
70302;BME280;57706;56.326;43.882;2023-02-20T04:46:57;99233.41;;;-11.44;62.10
70302;BME280;57706;56.326;43.882;2023-02-20T04:49:23;99231.03;;;-11.23;63.61
70302;BME280;57706;56.326;43.882;2023-02-20T04:51:52;99237.94;;;-11.28;63.03
70302;BME280;57706;56.326;43.882;2023-02-20T04:54:19;99236.91;;;-10.97;63.77
70302;BME280;57706;56.326;43.882;2023-02-20T04:56:46;99238.75;;;-11.02;63.15
70302;BME280;57706;56.326;43.882;2023-02-20T04:59:13;99230.25;;;-11.01;62.51
70302;BME280;57706;56.326;43.882;2023-02-20T05:01:39;99236.41;;;-10.83;62.56
70302;BME280;57706;56.326;43.882;2023-02-20T05:04:05;99238.66;;;-10.99;61.28
70302;BME280;57706;56.326;43.882;2023-02-20T05:06:30;99235.78;;;-11.14;61.41
70302;BME280;57706;56.326;43.882;2023-02-20T05:08:56;99224.00;;;-10.91;62.17
70302;BME280;57706;56.326;43.882;2023-02-20T05:11:23;99227.41;;;-10.68;62.24
70302;BME280;57706;56.326;43.882;2023-02-20T05:13:49;99233.81;;;-10.58;61.88
70302;BME280;57706;56.326;43.882;2023-02-20T05:16:15;99233.81;;;-10.58;59.80
70302;BME280;57706;56.326;43.882;2023-02-20T05:18:40;99237.47;;;-10.65;60.70
70302;BME280;57706;56.326;43.882;2023-02-20T05:21:06;99230.50;;;-10.38;60.71
70302;BME280;57706;56.326;43.882;2023-02-20T05:23:51;99230.38;;;-10.12;60.60
70302;BME280;57706;56.326;43.882;2023-02-20T05:26:19;99230.66;;;-9.98;60.38
70302;BME280;57706;56.326;43.882;2023-02-20T05:28:45;99231.06;;;-9.86;59.73
70302;BME280;57706;56.326;43.882;2023-02-20T05:31:11;99226.78;;;-9.63;60.33
70302;BME280;57706;56.326;43.882;2023-02-20T05:33:37;99229.31;;;-9.63;58.94
70302;BME280;57706;56.326;43.882;2023-02-20T05:36:04;99226.19;;;-9.49;59.10
70302;BME280;57706;56.326;43.882;2023-02-20T05:38:30;99225.75;;;-9.38;58.60
70302;BME280;57706;56.326;43.882;2023-02-20T05:40:56;99223.88;;;-9.33;58.18
70302;BME280;57706;56.326;43.882;2023-02-20T05:43:21;99231.84;;;-9.43;58.20
70302;BME280;57706;56.326;43.882;2023-02-20T05:45:47;99232.25;;;-9.73;57.15
70302;BME280;57706;56.326;43.882;2023-02-20T05:48:14;99229.28;;;-9.84;56.67
70302;BME280;57706;56.326;43.882;2023-02-20T05:50:40;99229.66;;;-9.93;57.77
70302;BME280;57706;56.326;43.882;2023-02-20T05:53:06;99231.16;;;-9.67;57.94
70302;BME280;57706;56.326;43.882;2023-02-20T05:55:32;99223.34;;;-9.62;58.46
70302;BME280;57706;56.326;43.882;2023-02-20T05:57:58;99216.34;;;-9.57;57.57
70302;BME280;57706;56.326;43.882;2023-02-20T06:00:24;99215.69;;;-9.83;57.83
70302;BME280;57706;56.326;43.882;2023-02-20T06:02:50;99211.25;;;-9.57;58.90
70302;BME280;57706;56.326;43.882;2023-02-20T06:05:16;99212.22;;;-9.60;57.67
70302;BME280;57706;56.326;43.882;2023-02-20T06:07:43;99210.25;;;-9.32;58.36
70302;BME280;57706;56.326;43.882;2023-02-20T06:10:09;99212.75;;;-9.12;57.83
70302;BME280;57706;56.326;43.882;2023-02-20T06:12:34;99209.84;;;-9.23;56.71
70302;BME280;57706;56.326;43.882;2023-02-20T06:15:00;99210.94;;;-9.29;55.88
70302;BME280;57706;56.326;43.882;2023-02-20T06:17:31;99206.09;;;-9.35;55.50
70302;BME280;57706;56.326;43.882;2023-02-20T06:19:57;99211.75;;;-9.28;55.81
70302;BME280;57706;56.326;43.882;2023-02-20T06:22:22;99198.91;;;-9.46;57.67
70302;BME280;57706;56.326;43.882;2023-02-20T06:24:48;99204.75;;;-9.44;57.96
70302;BME280;57706;56.326;43.882;2023-02-20T06:27:15;99213.88;;;-9.59;57.55
70302;BME280;57706;56.326;43.882;2023-02-20T06:29:42;99214.56;;;-9.55;57.73
70302;BME280;57706;56.326;43.882;2023-02-20T06:32:08;99208.94;;;-9.43;57.68
70302;BME280;57706;56.326;43.882;2023-02-20T06:34:34;99206.03;;;-9.54;55.17
70302;BME280;57706;56.326;43.882;2023-02-20T06:37:00;99199.56;;;-9.41;57.91
70302;BME280;57706;56.326;43.882;2023-02-20T06:39:27;99194.38;;;-9.39;56.40
70302;BME280;57706;56.326;43.882;2023-02-20T06:41:54;99190.72;;;-9.13;55.72
70302;BME280;57706;56.326;43.882;2023-02-20T06:44:20;99192.53;;;-9.15;54.15
70302;BME280;57706;56.326;43.882;2023-02-20T06:46:46;99193.19;;;-9.30;55.06
70302;BME280;57706;56.326;43.882;2023-02-20T06:49:12;99187.66;;;-9.40;54.01
70302;BME280;57706;56.326;43.882;2023-02-20T06:51:39;99196.88;;;-9.79;53.88
70302;BME280;57706;56.326;43.882;2023-02-20T06:54:05;99183.34;;;-9.59;55.46
70302;BME280;57706;56.326;43.882;2023-02-20T06:56:33;99192.09;;;-9.66;55.19
70302;BME280;57706;56.326;43.882;2023-02-20T06:59:01;99183.50;;;-9.43;55.44
70302;BME280;57706;56.326;43.882;2023-02-20T07:01:29;99185.41;;;-9.27;54.71
70302;BME280;57706;56.326;43.882;2023-02-20T07:03:57;99187.19;;;-9.29;54.07
70302;BME280;57706;56.326;43.882;2023-02-20T07:06:24;99194.56;;;-9.44;53.67
70302;BME280;57706;56.326;43.882;2023-02-20T07:08:50;99177.91;;;-9.30;54.17
70302;BME280;57706;56.326;43.882;2023-02-20T07:11:18;99178.91;;;-9.14;53.37
70302;BME280;57706;56.326;43.882;2023-02-20T07:13:44;99182.22;;;-8.73;54.35
70302;BME280;57706;56.326;43.882;2023-02-20T07:16:10;99179.75;;;-8.55;54.35
70302;BME280;57706;56.326;43.882;2023-02-20T07:18:36;99177.34;;;-8.59;52.42
70302;BME280;57706;56.326;43.882;2023-02-20T07:21:02;99178.09;;;-8.57;53.67
70302;BME280;57706;56.326;43.882;2023-02-20T07:23:28;99163.59;;;-9.33;53.79
70302;BME280;57706;56.326;43.882;2023-02-20T07:25:54;99174.09;;;-9.01;53.97
70302;BME280;57706;56.326;43.882;2023-02-20T07:28:20;99167.75;;;-8.53;54.23
70302;BME280;57706;56.326;43.882;2023-02-20T07:30:46;99163.00;;;-8.24;53.75
70302;BME280;57706;56.326;43.882;2023-02-20T07:33:16;99164.38;;;-8.36;51.92
70302;BME280;57706;56.326;43.882;2023-02-20T07:35:42;99168.34;;;-7.94;53.75
70302;BME280;57706;56.326;43.882;2023-02-20T07:38:08;99159.66;;;-8.26;52.21
70302;BME280;57706;56.326;43.882;2023-02-20T07:40:34;99164.06;;;-7.76;52.61
70302;BME280;57706;56.326;43.882;2023-02-20T07:43:00;99164.38;;;-7.82;51.49
70302;BME280;57706;56.326;43.882;2023-02-20T07:45:28;99172.75;;;-7.80;51.13
70302;BME280;57706;56.326;43.882;2023-02-20T07:47:54;99166.00;;;-7.98;51.49
70302;BME280;57706;56.326;43.882;2023-02-20T07:50:20;99163.00;;;-7.71;51.11
70302;BME280;57706;56.326;43.882;2023-02-20T07:52:46;99160.13;;;-7.48;51.77
70302;BME280;57706;56.326;43.882;2023-02-20T07:55:13;99164.59;;;-7.35;50.42
70302;BME280;57706;56.326;43.882;2023-02-20T07:57:39;99160.03;;;-7.12;49.78
70302;BME280;57706;56.326;43.882;2023-02-20T08:00:05;99158.44;;;-6.97;50.79
70302;BME280;57706;56.326;43.882;2023-02-20T08:02:37;99155.63;;;-6.77;49.54
70302;BME280;57706;56.326;43.882;2023-02-20T08:05:03;99154.72;;;-6.75;48.90
70302;BME280;57706;56.326;43.882;2023-02-20T08:07:28;99158.34;;;-6.96;49.77
70302;BME280;57706;56.326;43.882;2023-02-20T08:09:54;99148.53;;;-7.37;48.35
70302;BME280;57706;56.326;43.882;2023-02-20T08:12:20;99141.97;;;-7.77;49.56
70302;BME280;57706;56.326;43.882;2023-02-20T08:14:49;99144.09;;;-7.85;50.91
70302;BME280;57706;56.326;43.882;2023-02-20T08:17:15;99141.53;;;-8.20;50.45
70302;BME280;57706;56.326;43.882;2023-02-20T08:19:41;99139.25;;;-8.62;50.49
70302;BME280;57706;56.326;43.882;2023-02-20T08:22:07;99137.84;;;-8.32;52.98
70302;BME280;57706;56.326;43.882;2023-02-20T08:24:32;99142.13;;;-8.33;51.55
70302;BME280;57706;56.326;43.882;2023-02-20T08:26:58;99134.38;;;-8.49;51.96
70302;BME280;57706;56.326;43.882;2023-02-20T08:29:24;99129.94;;;-8.45;52.90
70302;BME280;57706;56.326;43.882;2023-02-20T08:31:49;99120.06;;;-8.51;51.34
70302;BME280;57706;56.326;43.882;2023-02-20T08:34:15;99131.28;;;-8.73;52.45
70302;BME280;57706;56.326;43.882;2023-02-20T08:36:41;99127.63;;;-8.50;52.84
70302;BME280;57706;56.326;43.882;2023-02-20T08:39:07;99137.78;;;-8.31;53.41
70302;BME280;57706;56.326;43.882;2023-02-20T08:41:32;99136.13;;;-8.32;52.39
70302;BME280;57706;56.326;43.882;2023-02-20T08:43:58;99116.97;;;-8.40;52.24
70302;BME280;57706;56.326;43.882;2023-02-20T08:46:24;99121.28;;;-8.41;53.04
70302;BME280;57706;56.326;43.882;2023-02-20T08:48:50;99118.53;;;-8.01;53.99
70302;BME280;57706;56.326;43.882;2023-02-20T08:51:20;99117.06;;;-7.71;52.83
70302;BME280;57706;56.326;43.882;2023-02-20T08:53:45;99113.56;;;-7.53;52.20
70302;BME280;57706;56.326;43.882;2023-02-20T08:56:11;99106.94;;;-7.73;52.46
70302;BME280;57706;56.326;43.882;2023-02-20T08:58:37;99113.03;;;-7.76;51.76
70302;BME280;57706;56.326;43.882;2023-02-20T09:01:04;99108.09;;;-7.96;52.94
70302;BME280;57706;56.326;43.882;2023-02-20T09:03:30;99108.38;;;-8.20;52.95
70302;BME280;57706;56.326;43.882;2023-02-20T09:05:56;99105.38;;;-8.64;53.87
70302;BME280;57706;56.326;43.882;2023-02-20T09:08:22;99099.84;;;-8.54;55.27
70302;BME280;57706;56.326;43.882;2023-02-20T09:10:47;99102.50;;;-8.75;55.66
70302;BME280;57706;56.326;43.882;2023-02-20T09:13:13;99103.44;;;-8.41;58.61
70302;BME280;57706;56.326;43.882;2023-02-20T09:15:39;99108.66;;;-8.26;56.74
70302;BME280;57706;56.326;43.882;2023-02-20T09:18:12;99101.78;;;-8.24;55.79
70302;BME280;57706;56.326;43.882;2023-02-20T09:20:39;99100.00;;;-8.05;54.59
70302;BME280;57706;56.326;43.882;2023-02-20T09:23:05;99103.91;;;-7.30;56.40
70302;BME280;57706;56.326;43.882;2023-02-20T09:25:31;99098.66;;;-7.11;52.91
70302;BME280;57706;56.326;43.882;2023-02-20T09:27:57;99096.84;;;-7.25;52.47
70302;BME280;57706;56.326;43.882;2023-02-20T09:30:23;99090.59;;;-7.03;50.89
70302;BME280;57706;56.326;43.882;2023-02-20T09:32:49;99092.88;;;-6.66;53.46
70302;BME280;57706;56.326;43.882;2023-02-20T09:35:24;99089.47;;;-6.97;52.12
70302;BME280;57706;56.326;43.882;2023-02-20T09:37:51;99088.28;;;-6.75;52.63
70302;BME280;57706;56.326;43.882;2023-02-20T09:40:21;99079.03;;;-7.10;51.46
70302;BME280;57706;56.326;43.882;2023-02-20T09:45:24;99081.84;;;-6.67;55.10
70302;BME280;57706;56.326;43.882;2023-02-20T09:50:43;99076.69;;;-6.34;51.23
70302;BME280;57706;56.326;43.882;2023-02-20T09:55:46;99068.97;;;-6.65;51.43
70302;BME280;57706;56.326;43.882;2023-02-20T09:58:26;99066.28;;;-7.10;51.69
70302;BME280;57706;56.326;43.882;2023-02-20T10:01:00;99069.91;;;-6.82;52.43
70302;BME280;57706;56.326;43.882;2023-02-20T10:05:55;99060.38;;;-6.48;53.78
70302;BME280;57706;56.326;43.882;2023-02-20T10:08:22;99061.88;;;-6.29;51.99
70302;BME280;57706;56.326;43.882;2023-02-20T10:10:50;99057.75;;;-6.63;52.38
70302;BME280;57706;56.326;43.882;2023-02-20T10:13:33;99056.25;;;-6.51;52.66
70302;BME280;57706;56.326;43.882;2023-02-20T10:16:10;99050.31;;;-6.51;51.48
70302;BME280;57706;56.326;43.882;2023-02-20T10:21:16;99043.38;;;-6.96;52.13
70302;BME280;57706;56.326;43.882;2023-02-20T10:23:52;99045.41;;;-6.86;52.44
70302;BME280;57706;56.326;43.882;2023-02-20T10:26:27;99047.50;;;-7.41;53.05
70302;BME280;57706;56.326;43.882;2023-02-20T10:29:00;99046.34;;;-7.20;53.67
70302;BME280;57706;56.326;43.882;2023-02-20T10:31:42;99045.00;;;-6.95;53.80
70302;BME280;57706;56.326;43.882;2023-02-20T10:34:22;99038.16;;;-6.78;54.33
70302;BME280;57706;56.326;43.882;2023-02-20T10:37:03;99034.59;;;-7.22;52.89
70302;BME280;57706;56.326;43.882;2023-02-20T10:39:31;99032.91;;;-7.39;52.49
70302;BME280;57706;56.326;43.882;2023-02-20T10:42:13;99030.34;;;-7.39;53.64
70302;BME280;57706;56.326;43.882;2023-02-20T10:44:57;99029.28;;;-7.19;54.37
70302;BME280;57706;56.326;43.882;2023-02-20T10:48:03;99036.72;;;-7.14;55.12
70302;BME280;57706;56.326;43.882;2023-02-20T10:54:10;99025.50;;;-7.12;54.24
70302;BME280;57706;56.326;43.882;2023-02-20T10:56:22;99027.34;;;-7.80;55.20
70302;BME280;57706;56.326;43.882;2023-02-20T10:59:15;99031.41;;;-7.43;56.41
70302;BME280;57706;56.326;43.882;2023-02-20T11:01:43;99020.81;;;-7.20;55.90
70302;BME280;57706;56.326;43.882;2023-02-20T11:04:15;99028.72;;;-7.08;55.51
70302;BME280;57706;56.326;43.882;2023-02-20T11:09:19;99034.38;;;-7.03;54.73
70302;BME280;57706;56.326;43.882;2023-02-20T11:11:45;99027.56;;;-7.51;54.60
70302;BME280;57706;56.326;43.882;2023-02-20T11:14:20;99017.34;;;-7.51;55.40
70302;BME280;57706;56.326;43.882;2023-02-20T11:17:09;99019.56;;;-7.44;56.13
70302;BME280;57706;56.326;43.882;2023-02-20T11:19:44;99019.72;;;-7.64;55.17
70302;BME280;57706;56.326;43.882;2023-02-20T11:22:11;99023.31;;;-7.84;56.40
70302;BME280;57706;56.326;43.882;2023-02-20T11:24:39;99026.63;;;-7.66;56.86
70302;BME280;57706;56.326;43.882;2023-02-20T11:32:37;99019.06;;;-7.51;55.46
70302;BME280;57706;56.326;43.882;2023-02-20T11:37:45;99015.63;;;-7.34;57.98
70302;BME280;57706;56.326;43.882;2023-02-20T11:40:29;99018.81;;;-7.47;57.22
70302;BME280;57706;56.326;43.882;2023-02-20T11:42:55;99015.13;;;-7.57;57.40
70302;BME280;57706;56.326;43.882;2023-02-20T11:53:29;99024.00;;;-7.64;57.97
70302;BME280;57706;56.326;43.882;2023-02-20T11:56:17;99017.78;;;-7.92;58.25
70302;BME280;57706;56.326;43.882;2023-02-20T11:58:47;99014.69;;;-8.50;57.50
70302;BME280;57706;56.326;43.882;2023-02-20T12:01:33;99021.41;;;-8.32;58.52
70302;BME280;57706;56.326;43.882;2023-02-20T12:04:01;99013.91;;;-8.17;59.45
70302;BME280;57706;56.326;43.882;2023-02-20T12:08:55;99008.38;;;-8.78;58.20
70302;BME280;57706;56.326;43.882;2023-02-20T12:11:24;99006.28;;;-8.70;59.27
70302;BME280;57706;56.326;43.882;2023-02-20T12:13:53;99013.66;;;-8.64;59.47
70302;BME280;57706;56.326;43.882;2023-02-20T12:25:17;99014.84;;;-8.71;59.99
70302;BME280;57706;56.326;43.882;2023-02-20T12:33:04;99003.34;;;-8.45;61.05
70302;BME280;57706;56.326;43.882;2023-02-20T12:35:49;99000.44;;;-8.72;60.66
70302;BME280;57706;56.326;43.882;2023-02-20T12:41:17;98995.31;;;-8.37;61.95
70302;BME280;57706;56.326;43.882;2023-02-20T12:55:34;98997.59;;;-8.83;62.24
70302;BME280;57706;56.326;43.882;2023-02-20T13:00:54;99001.94;;;-8.50;62.55
70302;BME280;57706;56.326;43.882;2023-02-20T13:03:44;99002.38;;;-8.60;61.70
70302;BME280;57706;56.326;43.882;2023-02-20T13:06:17;99001.13;;;-8.68;61.59
70302;BME280;57706;56.326;43.882;2023-02-20T13:11:21;98995.63;;;-8.96;63.20
70302;BME280;57706;56.326;43.882;2023-02-20T13:22:04;99000.50;;;-9.28;62.74
70302;BME280;57706;56.326;43.882;2023-02-20T13:24:36;99010.06;;;-9.33;62.74
70302;BME280;57706;56.326;43.882;2023-02-20T13:27:07;99005.78;;;-9.52;63.23
70302;BME280;57706;56.326;43.882;2023-02-20T13:30:02;99006.38;;;-9.45;64.38
70302;BME280;57706;56.326;43.882;2023-02-20T13:32:35;99003.31;;;-9.34;63.37
70302;BME280;57706;56.326;43.882;2023-02-20T13:38:09;98995.19;;;-9.43;62.72
70302;BME280;57706;56.326;43.882;2023-02-20T13:40:38;98994.84;;;-9.73;63.69
70302;BME280;57706;56.326;43.882;2023-02-20T13:48:49;98995.00;;;-9.57;65.00
70302;BME280;57706;56.326;43.882;2023-02-20T13:53:43;98989.16;;;-9.78;64.86
70302;BME280;57706;56.326;43.882;2023-02-20T13:56:18;99000.03;;;-9.75;64.75
70302;BME280;57706;56.326;43.882;2023-02-20T13:58:44;99000.41;;;-9.84;64.11
70302;BME280;57706;56.326;43.882;2023-02-20T14:01:10;98997.75;;;-9.81;64.10
70302;BME280;57706;56.326;43.882;2023-02-20T14:03:37;99001.53;;;-9.71;65.49
70302;BME280;57706;56.326;43.882;2023-02-20T14:06:13;98995.06;;;-9.78;64.46
70302;BME280;57706;56.326;43.882;2023-02-20T14:08:46;98999.63;;;-9.65;64.77
70302;BME280;57706;56.326;43.882;2023-02-20T14:11:26;98997.88;;;-9.84;64.68
70302;BME280;57706;56.326;43.882;2023-02-20T14:13:54;98993.81;;;-9.88;64.63
70302;BME280;57706;56.326;43.882;2023-02-20T14:18:57;98989.00;;;-9.95;64.71
70302;BME280;57706;56.326;43.882;2023-02-20T14:21:24;98991.59;;;-10.15;64.21
70302;BME280;57706;56.326;43.882;2023-02-20T14:23:51;98994.19;;;-10.17;64.98
70302;BME280;57706;56.326;43.882;2023-02-20T14:26:25;98992.84;;;-10.26;65.08
70302;BME280;57706;56.326;43.882;2023-02-20T14:28:54;98994.19;;;-10.17;64.95
70302;BME280;57706;56.326;43.882;2023-02-20T14:34:23;98988.41;;;-10.20;65.43
70302;BME280;57706;56.326;43.882;2023-02-20T14:36:54;98989.44;;;-10.05;65.52
70302;BME280;57706;56.326;43.882;2023-02-20T14:42:26;98984.00;;;-10.17;65.27
70302;BME280;57706;56.326;43.882;2023-02-20T14:45:05;98988.78;;;-10.30;65.36
70302;BME280;57706;56.326;43.882;2023-02-20T14:47:32;98984.75;;;-10.15;65.99
70302;BME280;57706;56.326;43.882;2023-02-20T14:50:20;98980.56;;;-9.95;65.93
70302;BME280;57706;56.326;43.882;2023-02-20T14:52:46;98980.06;;;-9.84;66.10
70302;BME280;57706;56.326;43.882;2023-02-20T14:55:17;98973.69;;;-9.93;64.97
70302;BME280;57706;56.326;43.882;2023-02-20T14:57:43;98974.13;;;-10.04;64.86
70302;BME280;57706;56.326;43.882;2023-02-20T15:02:49;98981.38;;;-9.95;64.84
70302;BME280;57706;56.326;43.882;2023-02-20T15:05:29;98981.72;;;-10.02;65.04
70302;BME280;57706;56.326;43.882;2023-02-20T15:10:40;98977.22;;;-10.37;65.47
70302;BME280;57706;56.326;43.882;2023-02-20T15:13:14;98977.78;;;-10.30;65.32
70302;BME280;57706;56.326;43.882;2023-02-20T15:15:44;98980.03;;;-10.23;65.56
70302;BME280;57706;56.326;43.882;2023-02-20T15:18:16;98976.03;;;-10.28;65.24
70302;BME280;57706;56.326;43.882;2023-02-20T15:20:53;98982.31;;;-10.37;65.20